sensor_id;sensor_type;location;lat;lon;timestamp;P1;durP1;ratioP1;P2;durP2;ratioP2
18501;SDS011;68437;52.236;5.710;2023-08-12T00:01:18;20.25;;;10.90;;
18501;SDS011;68437;52.236;5.710;2023-08-12T00:03:46;20.40;;;10.10;;
18501;SDS011;68437;52.236;5.710;2023-08-12T00:06:13;21.00;;;9.80;;
18501;SDS011;68437;52.236;5.710;2023-08-12T00:08:40;20.15;;;10.70;;
18501;SDS011;68437;52.236;5.710;2023-08-12T00:11:06;18.10;;;10.40;;
18501;SDS011;68437;52.236;5.710;2023-08-12T00:13:35;16.08;;;10.60;;
18501;SDS011;68437;52.236;5.710;2023-08-12T00:16:02;16.42;;;9.77;;
18501;SDS011;68437;52.236;5.710;2023-08-12T00:18:29;17.05;;;10.50;;
18501;SDS011;68437;52.236;5.710;2023-08-12T00:21:03;19.95;;;9.88;;
18501;SDS011;68437;52.236;5.710;2023-08-12T00:23:32;19.40;;;10.90;;
18501;SDS011;68437;52.236;5.710;2023-08-12T00:26:01;22.08;;;10.35;;
18501;SDS011;68437;52.236;5.710;2023-08-12T00:28:28;18.83;;;9.98;;
18501;SDS011;68437;52.236;5.710;2023-08-12T00:30:56;21.88;;;10.50;;
18501;SDS011;68437;52.236;5.710;2023-08-12T00:33:23;21.33;;;10.60;;
18501;SDS011;68437;52.236;5.710;2023-08-12T00:35:50;18.60;;;10.68;;
18501;SDS011;68437;52.236;5.710;2023-08-12T00:38:17;21.50;;;10.55;;
18501;SDS011;68437;52.236;5.710;2023-08-12T00:40:44;18.88;;;10.40;;
18501;SDS011;68437;52.236;5.710;2023-08-12T00:43:10;20.88;;;10.88;;
18501;SDS011;68437;52.236;5.710;2023-08-12T00:45:37;22.67;;;10.55;;
18501;SDS011;68437;52.236;5.710;2023-08-12T00:48:06;19.42;;;10.10;;
18501;SDS011;68437;52.236;5.710;2023-08-12T00:50:34;19.33;;;10.73;;
18501;SDS011;68437;52.236;5.710;2023-08-12T00:53:02;17.10;;;10.70;;
18501;SDS011;68437;52.236;5.710;2023-08-12T00:55:31;21.95;;;10.63;;
18501;SDS011;68437;52.236;5.710;2023-08-12T00:57:58;19.75;;;11.05;;
18501;SDS011;68437;52.236;5.710;2023-08-12T01:00:26;26.48;;;10.82;;
18501;SDS011;68437;52.236;5.710;2023-08-12T01:02:53;16.45;;;9.90;;
18501;SDS011;68437;52.236;5.710;2023-08-12T01:05:23;20.95;;;11.27;;
18501;SDS011;68437;52.236;5.710;2023-08-12T01:07:50;22.95;;;11.35;;
18501;SDS011;68437;52.236;5.710;2023-08-12T01:10:18;24.58;;;11.38;;
18501;SDS011;68437;52.236;5.710;2023-08-12T01:12:47;23.27;;;11.80;;
18501;SDS011;68437;52.236;5.710;2023-08-12T01:15:20;22.33;;;10.85;;
18501;SDS011;68437;52.236;5.710;2023-08-12T01:17:49;21.42;;;11.18;;
18501;SDS011;68437;52.236;5.710;2023-08-12T01:20:18;21.58;;;11.93;;
18501;SDS011;68437;52.236;5.710;2023-08-12T01:22:51;23.02;;;11.02;;
18501;SDS011;68437;52.236;5.710;2023-08-12T01:25:30;21.52;;;11.57;;
18501;SDS011;68437;52.236;5.710;2023-08-12T01:27:57;25.50;;;12.27;;
18501;SDS011;68437;52.236;5.710;2023-08-12T01:30:23;23.20;;;12.77;;
18501;SDS011;68437;52.236;5.710;2023-08-12T01:32:53;22.67;;;12.50;;
18501;SDS011;68437;52.236;5.710;2023-08-12T01:35:24;22.80;;;13.00;;
18501;SDS011;68437;52.236;5.710;2023-08-12T01:37:56;20.85;;;12.27;;
18501;SDS011;68437;52.236;5.710;2023-08-12T01:40:25;29.80;;;13.50;;
18501;SDS011;68437;52.236;5.710;2023-08-12T01:42:57;24.98;;;14.23;;
18501;SDS011;68437;52.236;5.710;2023-08-12T01:45:25;28.20;;;13.43;;
18501;SDS011;68437;52.236;5.710;2023-08-12T01:47:52;23.83;;;13.32;;
18501;SDS011;68437;52.236;5.710;2023-08-12T01:50:19;23.98;;;13.68;;
18501;SDS011;68437;52.236;5.710;2023-08-12T01:52:46;26.98;;;13.70;;
18501;SDS011;68437;52.236;5.710;2023-08-12T01:55:13;26.80;;;13.82;;
18501;SDS011;68437;52.236;5.710;2023-08-12T01:57:41;29.63;;;15.02;;
18501;SDS011;68437;52.236;5.710;2023-08-12T02:00:08;29.98;;;14.20;;
18501;SDS011;68437;52.236;5.710;2023-08-12T02:02:36;24.60;;;14.20;;
18501;SDS011;68437;52.236;5.710;2023-08-12T02:05:03;32.05;;;16.05;;
18501;SDS011;68437;52.236;5.710;2023-08-12T02:07:30;27.70;;;15.73;;
18501;SDS011;68437;52.236;5.710;2023-08-12T02:09:57;28.50;;;14.35;;
18501;SDS011;68437;52.236;5.710;2023-08-12T02:12:24;27.75;;;15.15;;
18501;SDS011;68437;52.236;5.710;2023-08-12T02:14:52;31.05;;;16.23;;
18501;SDS011;68437;52.236;5.710;2023-08-12T02:17:19;34.50;;;16.92;;
18501;SDS011;68437;52.236;5.710;2023-08-12T02:19:46;33.72;;;17.70;;
18501;SDS011;68437;52.236;5.710;2023-08-12T02:22:13;35.33;;;18.02;;
18501;SDS011;68437;52.236;5.710;2023-08-12T02:24:40;34.28;;;17.35;;
18501;SDS011;68437;52.236;5.710;2023-08-12T02:27:07;33.88;;;16.98;;
18501;SDS011;68437;52.236;5.710;2023-08-12T02:29:33;39.10;;;18.48;;
18501;SDS011;68437;52.236;5.710;2023-08-12T02:32:02;37.55;;;18.20;;
18501;SDS011;68437;52.236;5.710;2023-08-12T02:34:29;39.90;;;19.20;;
18501;SDS011;68437;52.236;5.710;2023-08-12T02:36:56;38.95;;;18.55;;
18501;SDS011;68437;52.236;5.710;2023-08-12T02:39:23;43.38;;;19.45;;
18501;SDS011;68437;52.236;5.710;2023-08-12T02:41:50;35.10;;;18.17;;
18501;SDS011;68437;52.236;5.710;2023-08-12T02:44:16;30.80;;;17.42;;
18501;SDS011;68437;52.236;5.710;2023-08-12T02:46:43;39.80;;;19.25;;
18501;SDS011;68437;52.236;5.710;2023-08-12T02:49:12;32.90;;;18.08;;
18501;SDS011;68437;52.236;5.710;2023-08-12T02:51:38;35.58;;;17.98;;
18501;SDS011;68437;52.236;5.710;2023-08-12T02:54:05;39.00;;;18.50;;
18501;SDS011;68437;52.236;5.710;2023-08-12T02:56:32;37.58;;;18.70;;
18501;SDS011;68437;52.236;5.710;2023-08-12T02:58:59;43.33;;;20.33;;
18501;SDS011;68437;52.236;5.710;2023-08-12T03:01:26;36.65;;;19.65;;
18501;SDS011;68437;52.236;5.710;2023-08-12T03:03:53;40.65;;;19.65;;
18501;SDS011;68437;52.236;5.710;2023-08-12T03:06:21;42.75;;;21.25;;
18501;SDS011;68437;52.236;5.710;2023-08-12T03:08:48;46.67;;;21.83;;
18501;SDS011;68437;52.236;5.710;2023-08-12T03:11:15;41.30;;;20.63;;
18501;SDS011;68437;52.236;5.710;2023-08-12T03:13:43;45.85;;;21.45;;
18501;SDS011;68437;52.236;5.710;2023-08-12T03:16:10;45.00;;;22.17;;
18501;SDS011;68437;52.236;5.710;2023-08-12T03:18:39;44.28;;;22.02;;
18501;SDS011;68437;52.236;5.710;2023-08-12T03:21:06;45.55;;;23.05;;
18501;SDS011;68437;52.236;5.710;2023-08-12T03:23:34;38.85;;;20.52;;
18501;SDS011;68437;52.236;5.710;2023-08-12T03:26:02;41.92;;;21.83;;
18501;SDS011;68437;52.236;5.710;2023-08-12T03:28:29;46.17;;;22.70;;
18501;SDS011;68437;52.236;5.710;2023-08-12T03:30:56;50.00;;;22.70;;
18501;SDS011;68437;52.236;5.710;2023-08-12T03:33:23;43.63;;;22.30;;
18501;SDS011;68437;52.236;5.710;2023-08-12T03:35:50;48.83;;;22.67;;
18501;SDS011;68437;52.236;5.710;2023-08-12T03:38:17;49.95;;;22.05;;
18501;SDS011;68437;52.236;5.710;2023-08-12T03:40:45;43.45;;;21.35;;
18501;SDS011;68437;52.236;5.710;2023-08-12T03:43:12;41.25;;;20.80;;
18501;SDS011;68437;52.236;5.710;2023-08-12T03:45:39;44.10;;;19.95;;
18501;SDS011;68437;52.236;5.710;2023-08-12T03:48:07;47.75;;;22.30;;
18501;SDS011;68437;52.236;5.710;2023-08-12T03:50:34;50.72;;;23.73;;
18501;SDS011;68437;52.236;5.710;2023-08-12T03:53:01;45.55;;;23.00;;
18501;SDS011;68437;52.236;5.710;2023-08-12T03:55:30;47.55;;;23.05;;
18501;SDS011;68437;52.236;5.710;2023-08-12T03:57:59;42.40;;;21.65;;
18501;SDS011;68437;52.236;5.710;2023-08-12T04:00:26;43.90;;;21.45;;
18501;SDS011;68437;52.236;5.710;2023-08-12T04:02:54;50.33;;;23.50;;
18501;SDS011;68437;52.236;5.710;2023-08-12T04:05:20;44.95;;;21.95;;
18501;SDS011;68437;52.236;5.710;2023-08-12T04:07:47;47.00;;;24.15;;
18501;SDS011;68437;52.236;5.710;2023-08-12T04:10:14;57.85;;;25.45;;
18501;SDS011;68437;52.236;5.710;2023-08-12T04:12:41;51.80;;;24.25;;
18501;SDS011;68437;52.236;5.710;2023-08-12T04:15:10;45.92;;;24.40;;
18501;SDS011;68437;52.236;5.710;2023-08-12T04:17:36;48.10;;;24.25;;
18501;SDS011;68437;52.236;5.710;2023-08-12T04:20:06;53.72;;;26.80;;
18501;SDS011;68437;52.236;5.710;2023-08-12T04:22:33;55.88;;;27.40;;
18501;SDS011;68437;52.236;5.710;2023-08-12T04:25:00;50.38;;;27.02;;
18501;SDS011;68437;52.236;5.710;2023-08-12T04:27:28;53.00;;;25.85;;
18501;SDS011;68437;52.236;5.710;2023-08-12T04:29:55;48.92;;;24.92;;
18501;SDS011;68437;52.236;5.710;2023-08-12T04:32:23;56.42;;;27.23;;
18501;SDS011;68437;52.236;5.710;2023-08-12T04:34:50;59.78;;;29.42;;
18501;SDS011;68437;52.236;5.710;2023-08-12T04:37:17;60.20;;;28.88;;
18501;SDS011;68437;52.236;5.710;2023-08-12T04:39:44;56.65;;;26.90;;
18501;SDS011;68437;52.236;5.710;2023-08-12T04:42:11;59.97;;;28.73;;
18501;SDS011;68437;52.236;5.710;2023-08-12T04:44:37;57.13;;;27.80;;
18501;SDS011;68437;52.236;5.710;2023-08-12T04:47:04;54.72;;;26.00;;
18501;SDS011;68437;52.236;5.710;2023-08-12T04:49:32;59.55;;;30.17;;
18501;SDS011;68437;52.236;5.710;2023-08-12T04:51:59;62.47;;;31.23;;
18501;SDS011;68437;52.236;5.710;2023-08-12T04:54:26;62.47;;;30.27;;
18501;SDS011;68437;52.236;5.710;2023-08-12T04:56:53;66.85;;;31.42;;
18501;SDS011;68437;52.236;5.710;2023-08-12T04:59:21;57.05;;;29.63;;
18501;SDS011;68437;52.236;5.710;2023-08-12T05:01:48;58.55;;;29.75;;
18501;SDS011;68437;52.236;5.710;2023-08-12T05:04:14;62.05;;;31.35;;
18501;SDS011;68437;52.236;5.710;2023-08-12T05:06:43;52.72;;;27.35;;
18501;SDS011;68437;52.236;5.710;2023-08-12T05:09:10;61.78;;;29.60;;
18501;SDS011;68437;52.236;5.710;2023-08-12T05:11:37;63.67;;;30.08;;
18501;SDS011;68437;52.236;5.710;2023-08-12T05:14:04;53.78;;;26.65;;
18501;SDS011;68437;52.236;5.710;2023-08-12T05:16:30;54.28;;;28.08;;
18501;SDS011;68437;52.236;5.710;2023-08-12T05:18:57;52.85;;;27.38;;
18501;SDS011;68437;52.236;5.710;2023-08-12T05:21:24;61.00;;;28.38;;
18501;SDS011;68437;52.236;5.710;2023-08-12T05:23:53;53.42;;;26.40;;
18501;SDS011;68437;52.236;5.710;2023-08-12T05:26:19;55.95;;;28.05;;
18501;SDS011;68437;52.236;5.710;2023-08-12T05:28:47;47.85;;;25.58;;
18501;SDS011;68437;52.236;5.710;2023-08-12T05:31:13;52.22;;;25.77;;
18501;SDS011;68437;52.236;5.710;2023-08-12T05:33:40;54.80;;;27.27;;
18501;SDS011;68437;52.236;5.710;2023-08-12T05:36:07;59.03;;;27.40;;
18501;SDS011;68437;52.236;5.710;2023-08-12T05:38:35;53.90;;;26.65;;
18501;SDS011;68437;52.236;5.710;2023-08-12T05:41:03;47.78;;;25.90;;
18501;SDS011;68437;52.236;5.710;2023-08-12T05:43:32;50.30;;;25.30;;
18501;SDS011;68437;52.236;5.710;2023-08-12T05:45:59;48.08;;;26.30;;
18501;SDS011;68437;52.236;5.710;2023-08-12T05:48:26;48.90;;;25.85;;
18501;SDS011;68437;52.236;5.710;2023-08-12T05:50:52;43.58;;;23.70;;
18501;SDS011;68437;52.236;5.710;2023-08-12T05:53:21;55.85;;;26.73;;
18501;SDS011;68437;52.236;5.710;2023-08-12T05:55:48;52.97;;;27.05;;
18501;SDS011;68437;52.236;5.710;2023-08-12T05:58:16;52.92;;;26.10;;
18501;SDS011;68437;52.236;5.710;2023-08-12T06:00:43;49.67;;;26.42;;
18501;SDS011;68437;52.236;5.710;2023-08-12T06:03:11;43.95;;;25.23;;
18501;SDS011;68437;52.236;5.710;2023-08-12T06:05:38;47.08;;;24.63;;
18501;SDS011;68437;52.236;5.710;2023-08-12T06:08:06;47.53;;;25.27;;
18501;SDS011;68437;52.236;5.710;2023-08-12T06:10:33;45.58;;;24.00;;
18501;SDS011;68437;52.236;5.710;2023-08-12T06:13:00;46.05;;;25.33;;
18501;SDS011;68437;52.236;5.710;2023-08-12T06:15:28;51.92;;;25.55;;
18501;SDS011;68437;52.236;5.710;2023-08-12T06:17:55;48.50;;;25.17;;
18501;SDS011;68437;52.236;5.710;2023-08-12T06:20:22;43.13;;;23.65;;
18501;SDS011;68437;52.236;5.710;2023-08-12T06:22:50;46.92;;;25.52;;
18501;SDS011;68437;52.236;5.710;2023-08-12T06:25:17;51.15;;;25.63;;
18501;SDS011;68437;52.236;5.710;2023-08-12T06:27:44;47.92;;;24.30;;
18501;SDS011;68437;52.236;5.710;2023-08-12T06:30:12;42.10;;;24.67;;
18501;SDS011;68437;52.236;5.710;2023-08-12T06:32:41;46.58;;;25.15;;
18501;SDS011;68437;52.236;5.710;2023-08-12T06:35:08;49.13;;;26.25;;
18501;SDS011;68437;52.236;5.710;2023-08-12T06:37:35;45.88;;;25.08;;
18501;SDS011;68437;52.236;5.710;2023-08-12T06:40:02;36.40;;;20.65;;
18501;SDS011;68437;52.236;5.710;2023-08-12T06:42:30;33.80;;;19.88;;
18501;SDS011;68437;52.236;5.710;2023-08-12T06:44:57;31.90;;;18.40;;
18501;SDS011;68437;52.236;5.710;2023-08-12T06:47:25;35.40;;;19.63;;
18501;SDS011;68437;52.236;5.710;2023-08-12T06:49:55;32.40;;;19.33;;
18501;SDS011;68437;52.236;5.710;2023-08-12T06:52:22;30.58;;;18.08;;
18501;SDS011;68437;52.236;5.710;2023-08-12T06:54:49;24.40;;;14.77;;
18501;SDS011;68437;52.236;5.710;2023-08-12T06:57:16;22.65;;;13.80;;
18501;SDS011;68437;52.236;5.710;2023-08-12T06:59:43;23.52;;;12.68;;
18501;SDS011;68437;52.236;5.710;2023-08-12T07:02:11;21.50;;;12.70;;
18501;SDS011;68437;52.236;5.710;2023-08-12T07:04:38;19.20;;;11.43;;
18501;SDS011;68437;52.236;5.710;2023-08-12T07:07:06;22.08;;;11.98;;
18501;SDS011;68437;52.236;5.710;2023-08-12T07:09:33;20.60;;;12.60;;
18501;SDS011;68437;52.236;5.710;2023-08-12T07:12:00;20.60;;;11.73;;
18501;SDS011;68437;52.236;5.710;2023-08-12T07:14:28;17.58;;;11.40;;
18501;SDS011;68437;52.236;5.710;2023-08-12T07:16:55;19.17;;;11.38;;
18501;SDS011;68437;52.236;5.710;2023-08-12T07:19:22;19.20;;;11.43;;
18501;SDS011;68437;52.236;5.710;2023-08-12T07:21:49;19.38;;;11.23;;
18501;SDS011;68437;52.236;5.710;2023-08-12T07:24:17;16.30;;;10.18;;
18501;SDS011;68437;52.236;5.710;2023-08-12T07:26:44;18.50;;;10.57;;
18501;SDS011;68437;52.236;5.710;2023-08-12T07:29:11;18.55;;;10.27;;
18501;SDS011;68437;52.236;5.710;2023-08-12T07:31:38;17.98;;;10.48;;
18501;SDS011;68437;52.236;5.710;2023-08-12T07:34:04;19.25;;;11.40;;
18501;SDS011;68437;52.236;5.710;2023-08-12T07:36:31;18.75;;;11.13;;
18501;SDS011;68437;52.236;5.710;2023-08-12T07:38:59;17.85;;;10.77;;
18501;SDS011;68437;52.236;5.710;2023-08-12T07:41:27;17.67;;;11.52;;
18501;SDS011;68437;52.236;5.710;2023-08-12T07:43:54;20.55;;;12.18;;
18501;SDS011;68437;52.236;5.710;2023-08-12T07:46:20;20.33;;;12.32;;
18501;SDS011;68437;52.236;5.710;2023-08-12T07:48:47;24.33;;;15.10;;
18501;SDS011;68437;52.236;5.710;2023-08-12T07:51:14;27.90;;;16.75;;
18501;SDS011;68437;52.236;5.710;2023-08-12T07:53:41;27.42;;;16.27;;
18501;SDS011;68437;52.236;5.710;2023-08-12T07:56:08;28.70;;;16.88;;
18501;SDS011;68437;52.236;5.710;2023-08-12T07:58:36;26.73;;;16.63;;
18501;SDS011;68437;52.236;5.710;2023-08-12T08:01:03;24.13;;;14.50;;
18501;SDS011;68437;52.236;5.710;2023-08-12T08:03:31;20.90;;;12.98;;
18501;SDS011;68437;52.236;5.710;2023-08-12T08:05:58;16.77;;;10.93;;
18501;SDS011;68437;52.236;5.710;2023-08-12T08:08:25;17.00;;;9.90;;
18501;SDS011;68437;52.236;5.710;2023-08-12T08:10:51;12.48;;;8.90;;
18501;SDS011;68437;52.236;5.710;2023-08-12T08:13:18;14.95;;;9.52;;
18501;SDS011;68437;52.236;5.710;2023-08-12T08:15:47;15.15;;;9.55;;
18501;SDS011;68437;52.236;5.710;2023-08-12T08:18:13;16.30;;;9.55;;
18501;SDS011;68437;52.236;5.710;2023-08-12T08:20:41;15.95;;;9.45;;
18501;SDS011;68437;52.236;5.710;2023-08-12T08:23:08;16.17;;;9.13;;
18501;SDS011;68437;52.236;5.710;2023-08-12T08:25:35;13.75;;;8.98;;
18501;SDS011;68437;52.236;5.710;2023-08-12T08:28:02;14.57;;;9.55;;
18501;SDS011;68437;52.236;5.710;2023-08-12T08:30:29;14.13;;;8.55;;
18501;SDS011;68437;52.236;5.710;2023-08-12T08:32:58;13.20;;;8.82;;
18501;SDS011;68437;52.236;5.710;2023-08-12T08:35:24;11.52;;;7.78;;
18501;SDS011;68437;52.236;5.710;2023-08-12T08:37:52;13.07;;;7.88;;
18501;SDS011;68437;52.236;5.710;2023-08-12T08:40:19;10.73;;;7.18;;
18501;SDS011;68437;52.236;5.710;2023-08-12T08:42:46;9.88;;;6.97;;
18501;SDS011;68437;52.236;5.710;2023-08-12T08:45:17;12.98;;;8.38;;
18501;SDS011;68437;52.236;5.710;2023-08-12T08:47:44;14.73;;;9.90;;
18501;SDS011;68437;52.236;5.710;2023-08-12T08:50:14;12.93;;;8.45;;
18501;SDS011;68437;52.236;5.710;2023-08-12T08:52:41;10.82;;;6.65;;
18501;SDS011;68437;52.236;5.710;2023-08-12T08:55:09;13.35;;;9.35;;
18501;SDS011;68437;52.236;5.710;2023-08-12T08:57:37;9.88;;;6.68;;
18501;SDS011;68437;52.236;5.710;2023-08-12T09:00:05;7.40;;;5.88;;
18501;SDS011;68437;52.236;5.710;2023-08-12T09:02:34;7.22;;;5.22;;
18501;SDS011;68437;52.236;5.710;2023-08-12T09:05:03;7.10;;;5.32;;
18501;SDS011;68437;52.236;5.710;2023-08-12T09:07:33;8.90;;;6.40;;
18501;SDS011;68437;52.236;5.710;2023-08-12T09:10:01;7.95;;;5.50;;
18501;SDS011;68437;52.236;5.710;2023-08-12T09:12:30;60.15;;;46.85;;
18501;SDS011;68437;52.236;5.710;2023-08-12T09:14:58;22.75;;;17.63;;
18501;SDS011;68437;52.236;5.710;2023-08-12T09:17:24;9.75;;;7.75;;
18501;SDS011;68437;52.236;5.710;2023-08-12T09:19:51;12.77;;;10.40;;
18501;SDS011;68437;52.236;5.710;2023-08-12T09:22:21;12.43;;;8.95;;
18501;SDS011;68437;52.236;5.710;2023-08-12T09:24:52;10.18;;;7.50;;
18501;SDS011;68437;52.236;5.710;2023-08-12T09:27:22;10.05;;;7.18;;
18501;SDS011;68437;52.236;5.710;2023-08-12T09:29:49;12.68;;;9.25;;
18501;SDS011;68437;52.236;5.710;2023-08-12T09:32:21;8.68;;;6.60;;
18501;SDS011;68437;52.236;5.710;2023-08-12T09:34:49;7.03;;;5.13;;
18501;SDS011;68437;52.236;5.710;2023-08-12T09:37:16;6.50;;;4.82;;
18501;SDS011;68437;52.236;5.710;2023-08-12T09:39:43;9.48;;;6.65;;
18501;SDS011;68437;52.236;5.710;2023-08-12T09:42:12;10.63;;;6.10;;
18501;SDS011;68437;52.236;5.710;2023-08-12T09:44:39;6.07;;;3.00;;
18501;SDS011;68437;52.236;5.710;2023-08-12T09:47:06;4.00;;;2.80;;
18501;SDS011;68437;52.236;5.710;2023-08-12T09:49:34;5.53;;;4.70;;
18501;SDS011;68437;52.236;5.710;2023-08-12T09:52:01;3.17;;;2.10;;
18501;SDS011;68437;52.236;5.710;2023-08-12T09:54:30;2.88;;;1.90;;
18501;SDS011;68437;52.236;5.710;2023-08-12T09:56:58;2.83;;;1.55;;
18501;SDS011;68437;52.236;5.710;2023-08-12T09:59:29;2.63;;;1.88;;
18501;SDS011;68437;52.236;5.710;2023-08-12T10:01:58;5.63;;;2.40;;
18501;SDS011;68437;52.236;5.710;2023-08-12T10:04:27;3.08;;;2.15;;
18501;SDS011;68437;52.236;5.710;2023-08-12T10:06:59;6.60;;;2.85;;
18501;SDS011;68437;52.236;5.710;2023-08-12T10:09:29;6.30;;;3.40;;
18501;SDS011;68437;52.236;5.710;2023-08-12T10:11:56;6.55;;;3.60;;
18501;SDS011;68437;52.236;5.710;2023-08-12T10:14:24;5.93;;;4.38;;
18501;SDS011;68437;52.236;5.710;2023-08-12T10:16:53;9.60;;;3.60;;
18501;SDS011;68437;52.236;5.710;2023-08-12T10:19:21;6.47;;;4.00;;
18501;SDS011;68437;52.236;5.710;2023-08-12T10:21:50;8.95;;;3.97;;
18501;SDS011;68437;52.236;5.710;2023-08-12T10:24:23;9.65;;;4.80;;
18501;SDS011;68437;52.236;5.710;2023-08-12T10:26:50;12.82;;;5.40;;
18501;SDS011;68437;52.236;5.710;2023-08-12T10:29:18;10.82;;;3.47;;
18501;SDS011;68437;52.236;5.710;2023-08-12T10:31:45;9.75;;;3.65;;
18501;SDS011;68437;52.236;5.710;2023-08-12T10:34:20;10.32;;;3.45;;
18501;SDS011;68437;52.236;5.710;2023-08-12T10:36:48;11.98;;;3.58;;
18501;SDS011;68437;52.236;5.710;2023-08-12T10:39:21;10.85;;;3.50;;
18501;SDS011;68437;52.236;5.710;2023-08-12T10:41:50;9.13;;;3.65;;
18501;SDS011;68437;52.236;5.710;2023-08-12T10:44:20;9.90;;;3.55;;
18501;SDS011;68437;52.236;5.710;2023-08-12T10:46:51;9.15;;;3.40;;
18501;SDS011;68437;52.236;5.710;2023-08-12T10:49:20;10.50;;;3.58;;
18501;SDS011;68437;52.236;5.710;2023-08-12T10:51:48;7.85;;;2.85;;
18501;SDS011;68437;52.236;5.710;2023-08-12T10:54:17;10.55;;;3.17;;
18501;SDS011;68437;52.236;5.710;2023-08-12T10:57:05;9.45;;;2.90;;
18501;SDS011;68437;52.236;5.710;2023-08-12T10:59:53;11.80;;;3.58;;
18501;SDS011;68437;52.236;5.710;2023-08-12T11:02:21;11.15;;;3.40;;
18501;SDS011;68437;52.236;5.710;2023-08-12T11:04:54;12.48;;;3.83;;
18501;SDS011;68437;52.236;5.710;2023-08-12T11:07:22;9.88;;;3.42;;
18501;SDS011;68437;52.236;5.710;2023-08-12T11:09:58;11.57;;;3.60;;
18501;SDS011;68437;52.236;5.710;2023-08-12T11:12:30;11.80;;;3.80;;
18501;SDS011;68437;52.236;5.710;2023-08-12T11:14:57;11.45;;;3.38;;
18501;SDS011;68437;52.236;5.710;2023-08-12T11:17:32;9.35;;;3.38;;
18501;SDS011;68437;52.236;5.710;2023-08-12T11:20:01;15.73;;;5.45;;
18501;SDS011;68437;52.236;5.710;2023-08-12T11:22:30;12.30;;;4.10;;
18501;SDS011;68437;52.236;5.710;2023-08-12T11:24:59;9.00;;;3.22;;
18501;SDS011;68437;52.236;5.710;2023-08-12T11:27:27;11.88;;;3.08;;
18501;SDS011;68437;52.236;5.710;2023-08-12T11:29:54;8.18;;;2.65;;
18501;SDS011;68437;52.236;5.710;2023-08-12T11:32:21;10.55;;;3.13;;
18501;SDS011;68437;52.236;5.710;2023-08-12T11:34:48;9.32;;;2.60;;
18501;SDS011;68437;52.236;5.710;2023-08-12T11:37:16;12.82;;;2.55;;
18501;SDS011;68437;52.236;5.710;2023-08-12T11:39:43;13.75;;;3.75;;
18501;SDS011;68437;52.236;5.710;2023-08-12T11:42:10;18.35;;;9.02;;
18501;SDS011;68437;52.236;5.710;2023-08-12T11:44:39;9.10;;;2.90;;
18501;SDS011;68437;52.236;5.710;2023-08-12T11:47:06;7.53;;;2.70;;
18501;SDS011;68437;52.236;5.710;2023-08-12T11:49:33;11.95;;;2.55;;
18501;SDS011;68437;52.236;5.710;2023-08-12T11:52:00;11.13;;;2.50;;
18501;SDS011;68437;52.236;5.710;2023-08-12T11:54:29;9.98;;;2.90;;
18501;SDS011;68437;52.236;5.710;2023-08-12T11:56:57;14.90;;;2.92;;
18501;SDS011;68437;52.236;5.710;2023-08-12T11:59:24;9.25;;;2.28;;
18501;SDS011;68437;52.236;5.710;2023-08-12T12:01:52;8.13;;;2.40;;
18501;SDS011;68437;52.236;5.710;2023-08-12T12:04:21;10.40;;;2.50;;
18501;SDS011;68437;52.236;5.710;2023-08-12T12:06:48;9.73;;;2.47;;
18501;SDS011;68437;52.236;5.710;2023-08-12T12:09:15;5.93;;;2.00;;
18501;SDS011;68437;52.236;5.710;2023-08-12T12:11:44;10.60;;;2.38;;
18501;SDS011;68437;52.236;5.710;2023-08-12T12:14:11;7.20;;;2.30;;
18501;SDS011;68437;52.236;5.710;2023-08-12T12:16:38;8.48;;;2.20;;
18501;SDS011;68437;52.236;5.710;2023-08-12T12:19:08;11.07;;;2.20;;
18501;SDS011;68437;52.236;5.710;2023-08-12T12:21:39;7.50;;;1.85;;
18501;SDS011;68437;52.236;5.710;2023-08-12T12:24:07;8.25;;;2.10;;
18501;SDS011;68437;52.236;5.710;2023-08-12T12:26:34;7.00;;;1.95;;
18501;SDS011;68437;52.236;5.710;2023-08-12T12:29:03;10.57;;;2.00;;
18501;SDS011;68437;52.236;5.710;2023-08-12T12:31:31;9.75;;;1.85;;
18501;SDS011;68437;52.236;5.710;2023-08-12T12:33:59;8.40;;;1.70;;
18501;SDS011;68437;52.236;5.710;2023-08-12T12:36:25;8.00;;;1.85;;
18501;SDS011;68437;52.236;5.710;2023-08-12T12:38:52;8.52;;;1.98;;
18501;SDS011;68437;52.236;5.710;2023-08-12T12:41:19;6.28;;;1.80;;
18501;SDS011;68437;52.236;5.710;2023-08-12T12:43:46;6.05;;;1.80;;
18501;SDS011;68437;52.236;5.710;2023-08-12T12:46:14;7.68;;;1.77;;
18501;SDS011;68437;52.236;5.710;2023-08-12T12:48:42;10.30;;;2.13;;
18501;SDS011;68437;52.236;5.710;2023-08-12T12:51:10;7.20;;;1.73;;
18501;SDS011;68437;52.236;5.710;2023-08-12T12:53:37;10.40;;;1.75;;
18501;SDS011;68437;52.236;5.710;2023-08-12T12:56:05;7.60;;;1.75;;
18501;SDS011;68437;52.236;5.710;2023-08-12T12:58:32;6.65;;;2.05;;
18501;SDS011;68437;52.236;5.710;2023-08-12T13:00:59;14.00;;;2.10;;
18501;SDS011;68437;52.236;5.710;2023-08-12T13:03:28;7.63;;;2.10;;
18501;SDS011;68437;52.236;5.710;2023-08-12T13:05:55;10.18;;;2.67;;
18501;SDS011;68437;52.236;5.710;2023-08-12T13:08:23;8.90;;;2.20;;
18501;SDS011;68437;52.236;5.710;2023-08-12T13:10:50;9.10;;;2.03;;
18501;SDS011;68437;52.236;5.710;2023-08-12T13:13:17;8.02;;;1.83;;
18501;SDS011;68437;52.236;5.710;2023-08-12T13:15:44;11.80;;;2.35;;
18501;SDS011;68437;52.236;5.710;2023-08-12T13:18:11;12.23;;;1.70;;
18501;SDS011;68437;52.236;5.710;2023-08-12T13:20:40;7.47;;;2.00;;
18501;SDS011;68437;52.236;5.710;2023-08-12T13:23:07;6.90;;;1.77;;
18501;SDS011;68437;52.236;5.710;2023-08-12T13:25:34;9.68;;;2.17;;
18501;SDS011;68437;52.236;5.710;2023-08-12T13:28:01;9.25;;;2.00;;
18501;SDS011;68437;52.236;5.710;2023-08-12T13:30:29;8.45;;;2.15;;
18501;SDS011;68437;52.236;5.710;2023-08-12T13:32:56;9.88;;;1.92;;
18501;SDS011;68437;52.236;5.710;2023-08-12T13:35:23;9.25;;;2.10;;
18501;SDS011;68437;52.236;5.710;2023-08-12T13:37:51;5.72;;;1.90;;
18501;SDS011;68437;52.236;5.710;2023-08-12T13:40:18;9.45;;;1.95;;
18501;SDS011;68437;52.236;5.710;2023-08-12T13:42:45;8.43;;;1.90;;
18501;SDS011;68437;52.236;5.710;2023-08-12T13:45:13;9.98;;;1.90;;
18501;SDS011;68437;52.236;5.710;2023-08-12T13:47:40;9.40;;;1.92;;
18501;SDS011;68437;52.236;5.710;2023-08-12T13:50:07;6.55;;;2.10;;
18501;SDS011;68437;52.236;5.710;2023-08-12T13:52:34;7.20;;;1.90;;
18501;SDS011;68437;52.236;5.710;2023-08-12T13:55:03;8.13;;;1.92;;
18501;SDS011;68437;52.236;5.710;2023-08-12T13:57:30;8.68;;;1.90;;
18501;SDS011;68437;52.236;5.710;2023-08-12T13:59:57;8.77;;;1.98;;
18501;SDS011;68437;52.236;5.710;2023-08-12T14:02:24;10.65;;;2.22;;
18501;SDS011;68437;52.236;5.710;2023-08-12T14:04:51;9.80;;;2.03;;
18501;SDS011;68437;52.236;5.710;2023-08-12T14:07:18;9.43;;;2.08;;
18501;SDS011;68437;52.236;5.710;2023-08-12T14:09:46;8.90;;;2.60;;
18501;SDS011;68437;52.236;5.710;2023-08-12T14:12:15;11.90;;;2.40;;
18501;SDS011;68437;52.236;5.710;2023-08-12T14:14:42;10.55;;;2.17;;
18501;SDS011;68437;52.236;5.710;2023-08-12T14:17:08;12.43;;;2.05;;
18501;SDS011;68437;52.236;5.710;2023-08-12T14:19:38;10.77;;;2.22;;
18501;SDS011;68437;52.236;5.710;2023-08-12T14:22:06;12.00;;;2.38;;
18501;SDS011;68437;52.236;5.710;2023-08-12T14:24:33;10.48;;;2.10;;
18501;SDS011;68437;52.236;5.710;2023-08-12T14:27:00;7.20;;;1.92;;
18501;SDS011;68437;52.236;5.710;2023-08-12T14:29:29;10.27;;;2.22;;
18501;SDS011;68437;52.236;5.710;2023-08-12T14:31:56;7.15;;;1.92;;
18501;SDS011;68437;52.236;5.710;2023-08-12T14:34:23;7.97;;;2.17;;